ADDS METAR Data INFO
IDs: Format: Raw Decoded Include TAF

Data at: 1133 UTC 29 May 2017

KFWS 291115Z AUTO 00000KT 10SM CLR 18/17 A3001 RMK AO2 T01830170
KFWS 291055Z AUTO 35004KT 10SM CLR 19/18 A3000 RMK AO2 T01900177
KFWS 291035Z AUTO 34003KT 10SM CLR 19/18 A2999 RMK AO2 T01910180
KFWS 291015Z AUTO 35004KT 10SM CLR 20/19 A2998 RMK AO2 T01960185
KFWS 290955Z AUTO 35007KT 7SM CLR 20/19 A2997 RMK AO2 T02010192
KFWS 290935Z AUTO 36007KT 7SM CLR 20/19 A2997 RMK AO2 T02010192
KFWS 290915Z AUTO 36007KT 7SM CLR 20/19 A2997 RMK AO2 T02000192
KFWS 290855Z AUTO 34006KT 7SM CLR 20/19 A2999 RMK AO2 T01990191
KFWS 290835Z AUTO 36006KT 7SM SCT110 19/18 A2999 RMK AO2 T01900182
KFWS 290815Z AUTO 36005KT 4SM BR SCT110 20/19 A3000 RMK AO2 T01950187
KFWS 290755Z AUTO 00000KT 3SM BR CLR 20/19 A3002 RMK AO2 T01990191
KFWS 290735Z AUTO 00000KT 5SM BR CLR 20/19 A3003 RMK AO2 T01960187
KFWS 290715Z AUTO 01003KT 5SM BR CLR 20/19 A3004 RMK AO2 T01970187
KFWS 290655Z AUTO 36003KT 5SM BR CLR 20/19 A3005 RMK AO2 T01970188
KFWS 290635Z AUTO 00000KT 10SM CLR 20/19 A3006 RMK AO2 T02010188
KFWS 290615Z AUTO 00000KT 10SM CLR 20/19 A3006 RMK AO2 T02020190
KFWS 290555Z AUTO 00000KT 10SM CLR 21/19 A3005 RMK AO2 T02070192 10253 20207 402770207
KFWS 290535Z AUTO 00000KT 10SM CLR 21/20 A3004 RMK AO2 T02130196
KFWS 290515Z AUTO 00000KT 10SM SCT041 22/20 A3005 RMK AO2 T02150196
KFWS 290455Z AUTO 00000KT 10SM CLR 22/20 A3006 RMK AO2 T02150195
KFWS 290435Z AUTO 19003KT 7SM CLR 22/20 A3007 RMK AO2 T02150196
KFWS 290415Z AUTO 21003KT 10SM CLR 22/19 A3005 RMK AO2 LTG DSNT SE T02170190
KFWS 290355Z AUTO 00000KT 10SM CLR 22/19 A3004 RMK AO2 LTG DSNT SE T02220194
KFWS 290335Z AUTO 00000KT 7SM CLR 22/20 A3004 RMK AO2 LTG DSNT SE T02200195
KFWS 290315Z AUTO 00000KT 10SM CLR 22/19 A3002 RMK AO2 LTG DSNT SE T02180194
KFWS 290255Z AUTO 20004KT 7SM SCT039 22/20 A3003 RMK AO2 LTG DSNT SE AND S T02170196
KFWS 290235Z AUTO 15003KT 7SM CLR 22/20 A3001 RMK AO2 T02180195
KFWS 290215Z AUTO 00000KT 7SM CLR 23/19 A2999 RMK AO2 T02300192
KFWS 290155Z AUTO 00000KT 7SM CLR 23/19 A2996 RMK AO2 LTG DSNT SE AND S T02300191
KFWS 290135Z AUTO 02004KT 5SM HZ CLR 23/19 A2992 RMK AO2 T02300191
KFWS 290115Z AUTO 36006KT 5SM HZ SCT055 23/19 A2993 RMK AO2 LTG DSNT S T02330191
KFWS 290055Z AUTO 06005KT 7SM SCT055 24/19 A2995 RMK AO2 LTG DSNT S T02400190
KFWS 282349Z 02006KT 10SM FEW034 26/19 A2995
KFWS 282251Z 36011KT 10SM FEW020 SCT034 26/19 A2995
KFWS 282146Z 01008KT 10SM BKN019 25/20 A2996
KFWS 282051Z 35009KT 7SM BKN015 OVC020 24/21 A3000
KFWS 281955Z 01006KT 7SM BKN006 BKN021 24/23 A2997
KFWS 281851Z 36006KT 2 1/2SM DZ BKN006 OVC013 22/21 A3000
KFWS 281750Z 03009KT 3SM DZ BKN006 OVC011 22/21 A2997
KFWS 281649Z 02009G15KT 1 1/2SM DZ BKN004 OVC008 22/21 A2998
KFWS 281547Z 01008KT 2SM DZ BKN005 OVC009 22/21 A2997
KFWS 281445Z 02008KT 1SM DZ OVC004 22/21 A2996
KFWS 281345Z 02008G16KT 2 1/2SM DZ OVC008 22/20 A2995
KFWS 281247Z 02012KT 7SM -DZ OVC013 23/20 A2991
KFWS 281146Z 09005KT 7SM SCT018 BKN044 25/22 A2987
KFWS 281135Z AUTO 11004KT 7SM SCT018 SCT024 BKN044 25/22 A2986 RMK AO2 LTG DSNT NE T02480221
KFWS 281115Z AUTO 09004KT 7SM SCT017 BKN039 OVC047 25/22 A2985 RMK AO2 LTG DSNT NE T02510220
KFWS 281055Z AUTO 12004KT 5SM HZ OVC017 26/22 A2985 RMK AO2 LTG DSNT NE T02550222
KFWS 281035Z AUTO 11003KT 5SM HZ SCT019 BKN025 OVC033 26/22 A2985 RMK AO2 LTG DSNT NE T02570220
KFWS 281015Z AUTO 13006KT 7SM SCT019 BKN029 OVC034 26/22 A2984 RMK AO2 LTG DSNT N AND NE T02570220
KFWS 280955Z AUTO 00000KT 7SM SCT019 BKN031 OVC050 26/22 A2984 RMK AO2 LTG DSNT N AND NE T02570220
KFWS 280935Z AUTO 00000KT 7SM BKN017 OVC025 26/22 A2984 RMK AO2 LTG DSNT N T02620220
KFWS 280915Z AUTO 01006G16KT 7SM SCT017 26/22 A2984 RMK AO2 LTG DSNT N T02550219
KFWS 280855Z AUTO 20007KT 7SM CLR 26/22 A2977 RMK AO2 LTG DSNT N AND NW T02550217
KFWS 280835Z AUTO 18011KT 7SM CLR 26/22 A2975 RMK AO2 LTG DSNT N AND E T02570216
KFWS 280815Z AUTO 18008KT 7SM CLR 26/22 A2975 RMK AO2 LTG DSNT N T02600217
KFWS 280755Z AUTO 19011G16KT 5SM HZ CLR 26/22 A2974 RMK AO2 T02620218
KFWS 280735Z AUTO 20012KT 5SM HZ CLR 27/22 A2974 RMK AO2 LTG DSNT NE T02670221
KFWS 280715Z AUTO 19016KT 7SM CLR 27/22 A2975 RMK AO2 LTG DSNT NE T02670220
KFWS 280655Z AUTO 19014G22KT 7SM CLR 27/22 A2976 RMK AO2 T02700220
KFWS 280635Z AUTO 19015G20KT 7SM CLR 27/22 A2977 RMK AO2 T02720222
KFWS 280615Z AUTO 19015G21KT 5SM HZ CLR 28/22 A2978 RMK AO2 T02760222
KFWS 280555Z AUTO 19015G24KT 5SM HZ CLR 28/22 A2978 RMK AO2 T02770221 10315 20277 403300253
KFWS 280535Z AUTO 19018G24KT 5SM HZ CLR 28/22 A2977 RMK AO2 T02800220
KFWS 280515Z AUTO 18015G28KT 5SM HZ CLR 28/22 A2977 RMK AO2 T02820221
KFWS 280455Z AUTO 19017G25KT 5SM HZ CLR 29/23 A2977 RMK AO2 T02870225
KFWS 280435Z AUTO 19016G26KT 5SM HZ CLR 29/23 A2977 RMK AO2 T02880225
KFWS 280415Z AUTO 19019G25KT 7SM CLR 29/23 A2975 RMK AO2 T02920226
KFWS 280355Z AUTO 19017G23KT 5SM HZ CLR 29/23 A2975 RMK AO2 T02930226
KFWS 280335Z AUTO 18014G22KT 5SM HZ CLR 30/23 A2976 RMK AO2 T02950228
KFWS 280315Z AUTO 18013G17KT 5SM HZ CLR 30/23 A2976 RMK AO2 T02950230
KFWS 280255Z AUTO 18010G18KT 5SM HZ CLR 30/23 A2976 RMK AO2 T02970230
KFWS 280235Z AUTO 19014G20KT 5SM HZ CLR 30/23 A2977 RMK AO2 T02950232
KFWS 280215Z AUTO 18011KT 5SM HZ CLR 29/24 A2977 RMK AO2 T02920235
KFWS 280155Z AUTO 18008KT 5SM HZ CLR 29/24 A2977 RMK AO2 T02920235
KFWS 280135Z AUTO 17009KT 4SM HZ CLR 30/24 A2977 RMK AO2 T02960235
KFWS 280115Z AUTO 17011G17KT 3SM HZ CLR 30/24 A2977 RMK AO2 T02980235
KFWS 280055Z AUTO 16010G15KT 4SM HZ CLR 30/23 A2977 RMK AO2 T03030233
KFWS 272351Z 16017G22KT 4SM HZ FEW040 32/23 A2979


Page loaded:  11:33 UTC  |   04:33 AM Pacific  |   05:33 AM Mountain  |   06:33 AM Central  |   07:33 AM Eastern

 

ADVISORIES

FORECASTS

FORECASTS

OBSERVATIONS

USER TOOLS

ABOUT US